FDB1YT OBBI-OMDB
Flight info
| Callsign | FDB1YT |
|---|---|
| Flight time | 0h 54m |
| Altitude | 25000 |
| Route | BHR DCT SODAK P559 VUTEB |
| Aircraft | B738/M-SDE2E3FGHIRWXY/LB1 |
Departure
| Time | 2026-04-23 17:34 |
|---|---|
| Airport | Bahrain International Airport (OBBI) |
Arrival
| Time | 2026-04-23 18:28 |
|---|---|
| Airport | Dubai International Airport (OMDB) |
| Time | Latitude | Longitude | Altitude | Speed | Heading |
|---|---|---|---|---|---|
| 2026-04-23 17:19 | 26.26850 | 50.62989 | 20 ft | 0 kts | 212° |
| 2026-04-23 17:26 | 26.26854 | 50.62992 | 20 ft | 2 kts | 212° |
| 2026-04-23 17:26 | 26.26881 | 50.63011 | 22 ft | 2 kts | 212° |
| 2026-04-23 17:27 | 26.26909 | 50.63030 | 23 ft | 2 kts | 202° |
| 2026-04-23 17:27 | 26.26921 | 50.63034 | 23 ft | 2 kts | 176° |
| 2026-04-23 17:27 | 26.26931 | 50.63034 | 23 ft | 2 kts | 225° |
| 2026-04-23 17:27 | 26.26939 | 50.63044 | 23 ft | 1 kts | 189° |
| 2026-04-23 17:28 | 26.26942 | 50.63045 | 23 ft | 0 kts | 152° |
| 2026-04-23 17:29 | 26.26913 | 50.63098 | 20 ft | 10 kts | 115° |
| 2026-04-23 17:30 | 26.26921 | 50.63146 | 21 ft | 10 kts | 52° |
| 2026-04-23 17:30 | 26.26846 | 50.63418 | 19 ft | 27 kts | 122° |
| 2026-04-23 17:30 | 26.26747 | 50.63588 | 20 ft | 25 kts | 122° |
| 2026-04-23 17:31 | 26.26656 | 50.63748 | 20 ft | 24 kts | 122° |
| 2026-04-23 17:31 | 26.26569 | 50.63898 | 21 ft | 23 kts | 123° |
| 2026-04-23 17:31 | 26.26486 | 50.64043 | 20 ft | 22 kts | 123° |
| 2026-04-23 17:31 | 26.26404 | 50.64185 | 20 ft | 22 kts | 122° |
| 2026-04-23 17:32 | 26.26300 | 50.64365 | 19 ft | 30 kts | 123° |
| 2026-04-23 17:32 | 26.26192 | 50.64552 | 21 ft | 28 kts | 123° |
| 2026-04-23 17:32 | 26.26091 | 50.64728 | 19 ft | 26 kts | 123° |
| 2026-04-23 17:32 | 26.26020 | 50.64861 | 23 ft | 17 kts | 106° |
| 2026-04-23 17:33 | 26.26061 | 50.64972 | 18 ft | 16 kts | 38° |
| 2026-04-23 17:33 | 26.26156 | 50.64968 | 17 ft | 18 kts | 306° |
| 2026-04-23 17:33 | 26.26300 | 50.64723 | 15 ft | 71 kts | 303° |
| 2026-04-23 17:33 | 26.26697 | 50.64034 | 16 ft | 138 kts | 303° |
| 2026-04-23 17:34 | 26.27307 | 50.62964 | 161 ft | 181 kts | 304° |
| 2026-04-23 17:34 | 26.28013 | 50.61812 | 1020 ft | 178 kts | 320° |
| 2026-04-23 17:34 | 26.30255 | 50.60811 | 2314 ft | 195 kts | 347° |
| 2026-04-23 17:35 | 26.31657 | 50.60413 | 2515 ft | 222 kts | 347° |
| 2026-04-23 17:35 | 26.34967 | 50.59987 | 3503 ft | 255 kts | 14° |
| 2026-04-23 17:35 | 26.36573 | 50.60882 | 4191 ft | 266 kts | 36° |
| 2026-04-23 17:36 | 26.37940 | 50.62324 | 4848 ft | 275 kts | 45° |
| 2026-04-23 17:36 | 26.39267 | 50.63889 | 5533 ft | 281 kts | 47° |
| 2026-04-23 17:36 | 26.40606 | 50.65499 | 6260 ft | 286 kts | 47° |
| 2026-04-23 17:36 | 26.41972 | 50.67140 | 6908 ft | 292 kts | 47° |
| 2026-04-23 17:37 | 26.43377 | 50.68819 | 7508 ft | 299 kts | 47° |
| 2026-04-23 17:37 | 26.44807 | 50.70517 | 8260 ft | 301 kts | 46° |
| 2026-04-23 17:37 | 26.47715 | 50.73953 | 9565 ft | 313 kts | 46° |
| 2026-04-23 17:38 | 26.49224 | 50.75730 | 10181 ft | 319 kts | 45° |
| 2026-04-23 17:38 | 26.50796 | 50.77580 | 10442 ft | 340 kts | 45° |
| 2026-04-23 17:38 | 26.52470 | 50.79548 | 10740 ft | 356 kts | 45° |
| 2026-04-23 17:38 | 26.54196 | 50.81580 | 11260 ft | 363 kts | 45° |
| 2026-04-23 17:39 | 26.55945 | 50.83638 | 11903 ft | 367 kts | 45° |
| 2026-04-23 17:39 | 26.57710 | 50.85718 | 12568 ft | 371 kts | 45° |
| 2026-04-23 17:39 | 26.59502 | 50.87829 | 13216 ft | 377 kts | 45° |
| 2026-04-23 17:39 | 26.61318 | 50.89969 | 13838 ft | 382 kts | 45° |
| 2026-04-23 17:40 | 26.63158 | 50.92138 | 14448 ft | 386 kts | 45° |
| 2026-04-23 17:40 | 26.65014 | 50.94327 | 15114 ft | 390 kts | 45° |
| 2026-04-23 17:40 | 26.66885 | 50.96536 | 15786 ft | 393 kts | 44° |
| 2026-04-23 17:40 | 26.68775 | 50.98767 | 16432 ft | 397 kts | 44° |
| 2026-04-23 17:41 | 26.70681 | 51.01018 | 17071 ft | 401 kts | 44° |
| 2026-04-23 17:41 | 26.74525 | 51.05621 | 18315 ft | 410 kts | 50° |
| 2026-04-23 17:41 | 26.75900 | 51.08425 | 18813 ft | 415 kts | 71° |
| 2026-04-23 17:42 | 26.75946 | 51.14762 | 18929 ft | 410 kts | 111° |
| 2026-04-23 17:42 | 26.75003 | 51.17767 | 18933 ft | 410 kts | 114° |
| 2026-04-23 17:42 | 26.74002 | 51.20750 | 18922 ft | 409 kts | 114° |
| 2026-04-23 17:43 | 26.72998 | 51.23729 | 18916 ft | 409 kts | 114° |
| 2026-04-23 17:43 | 26.72002 | 51.26728 | 19042 ft | 415 kts | 113° |
| 2026-04-23 17:43 | 26.71007 | 51.29772 | 19577 ft | 417 kts | 113° |
| 2026-04-23 17:43 | 26.70020 | 51.32826 | 20212 ft | 418 kts | 112° |
| 2026-04-23 17:44 | 26.69047 | 51.35856 | 20792 ft | 421 kts | 112° |
| 2026-04-23 17:44 | 26.68054 | 51.38948 | 21326 ft | 425 kts | 112° |
| 2026-04-23 17:44 | 26.66033 | 51.45223 | 22328 ft | 433 kts | 112° |
| 2026-04-23 17:45 | 26.65012 | 51.48398 | 22835 ft | 436 kts | 112° |
| 2026-04-23 17:45 | 26.62947 | 51.54824 | 23774 ft | 443 kts | 112° |
| 2026-04-23 17:45 | 26.61904 | 51.58070 | 24187 ft | 445 kts | 112° |
| 2026-04-23 17:46 | 26.59796 | 51.64620 | 24898 ft | 451 kts | 112° |
| 2026-04-23 17:46 | 26.58728 | 51.67930 | 24899 ft | 452 kts | 112° |
| 2026-04-23 17:46 | 26.57670 | 51.71210 | 24897 ft | 446 kts | 112° |
| 2026-04-23 17:47 | 26.56599 | 51.74497 | 24916 ft | 456 kts | 112° |
| 2026-04-23 17:47 | 26.55503 | 51.77863 | 24936 ft | 466 kts | 112° |
| 2026-04-23 17:47 | 26.53264 | 51.84818 | 24923 ft | 484 kts | 112° |
| 2026-04-23 17:48 | 26.52113 | 51.88383 | 24912 ft | 492 kts | 112° |
| 2026-04-23 17:48 | 26.50925 | 51.91990 | 24908 ft | 498 kts | 112° |
| 2026-04-23 17:48 | 26.49708 | 51.95629 | 24913 ft | 503 kts | 112° |
| 2026-04-23 17:48 | 26.48476 | 51.99303 | 24908 ft | 508 kts | 112° |
| 2026-04-23 17:49 | 26.47234 | 52.03011 | 24904 ft | 511 kts | 112° |
| 2026-04-23 17:49 | 26.46412 | 52.05472 | 24894 ft | 511 kts | 112° |
| 2026-04-23 17:49 | 26.44756 | 52.10438 | 24893 ft | 510 kts | 112° |
| 2026-04-23 17:49 | 26.43936 | 52.12893 | 24891 ft | 510 kts | 112° |
| 2026-04-23 17:50 | 26.42697 | 52.16595 | 24894 ft | 510 kts | 112° |
| 2026-04-23 17:50 | 26.40211 | 52.23998 | 24890 ft | 509 kts | 112° |
| 2026-04-23 17:50 | 26.38969 | 52.27693 | 24895 ft | 509 kts | 112° |
| 2026-04-23 17:51 | 26.37727 | 52.31387 | 24900 ft | 509 kts | 112° |
| 2026-04-23 17:51 | 26.36484 | 52.35080 | 24900 ft | 508 kts | 112° |
| 2026-04-23 17:51 | 26.33931 | 52.42418 | 24895 ft | 507 kts | 114° |
| 2026-04-23 17:52 | 26.32537 | 52.46028 | 24886 ft | 507 kts | 115° |
| 2026-04-23 17:52 | 26.29702 | 52.53213 | 24884 ft | 506 kts | 115° |
| 2026-04-23 17:52 | 26.28304 | 52.56813 | 24889 ft | 506 kts | 115° |
| 2026-04-23 17:53 | 26.25543 | 52.64022 | 24893 ft | 506 kts | 115° |
| 2026-04-23 17:53 | 26.24161 | 52.67627 | 24888 ft | 506 kts | 115° |
| 2026-04-23 17:53 | 26.22779 | 52.71228 | 24883 ft | 506 kts | 115° |
| 2026-04-23 17:54 | 26.21396 | 52.74829 | 24888 ft | 506 kts | 115° |
| 2026-04-23 17:54 | 26.20013 | 52.78430 | 24885 ft | 506 kts | 115° |
| 2026-04-23 17:54 | 26.17250 | 52.85623 | 24884 ft | 505 kts | 115° |
| 2026-04-23 17:55 | 26.14486 | 52.92816 | 24884 ft | 505 kts | 115° |
| 2026-04-23 17:55 | 26.13103 | 52.96413 | 24885 ft | 505 kts | 115° |
| 2026-04-23 17:55 | 26.11722 | 53.00001 | 24879 ft | 505 kts | 115° |
| 2026-04-23 17:56 | 26.10336 | 53.03593 | 24876 ft | 505 kts | 115° |
| 2026-04-23 17:56 | 26.07642 | 53.10809 | 24873 ft | 505 kts | 114° |
| 2026-04-23 17:56 | 26.06341 | 53.14383 | 24872 ft | 505 kts | 114° |
| 2026-04-23 17:57 | 26.05006 | 53.18056 | 24872 ft | 506 kts | 114° |
| 2026-04-23 17:57 | 26.03702 | 53.21629 | 24871 ft | 506 kts | 114° |
| 2026-04-23 17:57 | 26.01132 | 53.28640 | 24845 ft | 470 kts | 114° |
| 2026-04-23 17:58 | 25.99921 | 53.31935 | 24848 ft | 452 kts | 114° |
| 2026-04-23 17:58 | 25.98753 | 53.35108 | 24844 ft | 435 kts | 114° |
| 2026-04-23 17:58 | 25.97626 | 53.38163 | 24847 ft | 420 kts | 114° |
| 2026-04-23 17:58 | 25.96535 | 53.41116 | 24858 ft | 409 kts | 114° |
| 2026-04-23 17:59 | 25.95451 | 53.44046 | 24866 ft | 411 kts | 114° |
| 2026-04-23 17:59 | 25.94359 | 53.46994 | 24877 ft | 414 kts | 114° |
| 2026-04-23 17:59 | 25.93263 | 53.49958 | 24879 ft | 416 kts | 114° |
| 2026-04-23 17:59 | 25.92204 | 53.52951 | 24872 ft | 417 kts | 113° |
| 2026-04-23 18:00 | 25.91174 | 53.55969 | 24877 ft | 418 kts | 112° |
| 2026-04-23 18:00 | 25.90148 | 53.58995 | 24872 ft | 419 kts | 112° |
| 2026-04-23 18:00 | 25.89120 | 53.62020 | 24872 ft | 419 kts | 112° |
| 2026-04-23 18:00 | 25.88087 | 53.65041 | 24861 ft | 418 kts | 112° |
| 2026-04-23 18:01 | 25.87050 | 53.68055 | 24851 ft | 417 kts | 113° |
| 2026-04-23 18:01 | 25.86012 | 53.71062 | 24851 ft | 416 kts | 113° |
| 2026-04-23 18:01 | 25.85044 | 53.74058 | 24842 ft | 410 kts | 107° |
| 2026-04-23 18:01 | 25.84336 | 53.77113 | 24435 ft | 410 kts | 104° |
| 2026-04-23 18:02 | 25.83703 | 53.80213 | 24054 ft | 409 kts | 103° |
| 2026-04-23 18:02 | 25.83097 | 53.83303 | 23498 ft | 413 kts | 103° |
| 2026-04-23 18:02 | 25.82478 | 53.86449 | 22713 ft | 420 kts | 103° |
| 2026-04-23 18:02 | 25.81843 | 53.89617 | 22158 ft | 420 kts | 104° |
| 2026-04-23 18:03 | 25.81202 | 53.92760 | 21778 ft | 416 kts | 104° |
| 2026-04-23 18:03 | 25.80560 | 53.95870 | 21385 ft | 411 kts | 104° |
| 2026-04-23 18:03 | 25.79918 | 53.98951 | 20938 ft | 409 kts | 104° |
| 2026-04-23 18:03 | 25.79275 | 54.02023 | 20489 ft | 408 kts | 104° |
| 2026-04-23 18:04 | 25.78632 | 54.05081 | 20046 ft | 407 kts | 104° |
| 2026-04-23 18:04 | 25.77990 | 54.08130 | 19642 ft | 404 kts | 104° |
| 2026-04-23 18:04 | 25.77353 | 54.11153 | 19239 ft | 402 kts | 104° |
| 2026-04-23 18:04 | 25.76717 | 54.14171 | 18830 ft | 401 kts | 104° |
| 2026-04-23 18:05 | 25.76083 | 54.17177 | 18419 ft | 399 kts | 104° |
| 2026-04-23 18:05 | 25.75450 | 54.20171 | 17996 ft | 398 kts | 105° |
| 2026-04-23 18:05 | 25.74821 | 54.23147 | 17602 ft | 395 kts | 105° |
| 2026-04-23 18:05 | 25.74205 | 54.26060 | 17246 ft | 391 kts | 105° |
| 2026-04-23 18:06 | 25.73588 | 54.28977 | 16876 ft | 387 kts | 105° |
| 2026-04-23 18:06 | 25.72974 | 54.31874 | 16503 ft | 384 kts | 105° |
| 2026-04-23 18:06 | 25.72365 | 54.34742 | 16159 ft | 380 kts | 105° |
| 2026-04-23 18:06 | 25.71762 | 54.37579 | 15794 ft | 377 kts | 106° |
| 2026-04-23 18:07 | 25.71164 | 54.40397 | 15411 ft | 374 kts | 105° |
| 2026-04-23 18:07 | 25.70573 | 54.43191 | 15070 ft | 370 kts | 106° |
| 2026-04-23 18:07 | 25.69986 | 54.45955 | 14747 ft | 366 kts | 106° |
| 2026-04-23 18:07 | 25.69405 | 54.48689 | 14420 ft | 362 kts | 106° |
| 2026-04-23 18:08 | 25.69023 | 54.50482 | 14211 ft | 360 kts | 106° |
| 2026-04-23 18:08 | 25.68257 | 54.54064 | 13796 ft | 354 kts | 107° |
| 2026-04-23 18:08 | 25.67691 | 54.56711 | 13444 ft | 351 kts | 107° |
| 2026-04-23 18:08 | 25.67128 | 54.59336 | 13048 ft | 349 kts | 107° |
| 2026-04-23 18:09 | 25.66567 | 54.61948 | 12652 ft | 347 kts | 107° |
| 2026-04-23 18:09 | 25.66016 | 54.64517 | 12346 ft | 336 kts | 107° |
| 2026-04-23 18:09 | 25.65493 | 54.66967 | 12210 ft | 319 kts | 107° |
| 2026-04-23 18:09 | 25.64986 | 54.69332 | 11786 ft | 314 kts | 107° |
| 2026-04-23 18:10 | 25.64473 | 54.71701 | 11352 ft | 317 kts | 107° |
| 2026-04-23 18:10 | 25.63962 | 54.74069 | 11085 ft | 314 kts | 107° |
| 2026-04-23 18:10 | 25.63458 | 54.76409 | 10816 ft | 311 kts | 107° |
| 2026-04-23 18:10 | 25.62956 | 54.78735 | 10487 ft | 310 kts | 107° |
| 2026-04-23 18:11 | 25.62453 | 54.81061 | 10176 ft | 310 kts | 106° |
| 2026-04-23 18:11 | 25.61954 | 54.83374 | 10049 ft | 310 kts | 106° |
| 2026-04-23 18:11 | 25.61450 | 54.85699 | 10010 ft | 308 kts | 107° |
| 2026-04-23 18:11 | 25.60818 | 54.87943 | 10004 ft | 305 kts | 115° |
| 2026-04-23 18:12 | 25.59970 | 54.90102 | 10010 ft | 306 kts | 118° |
| 2026-04-23 18:12 | 25.59078 | 54.92241 | 9999 ft | 306 kts | 118° |
| 2026-04-23 18:12 | 25.58195 | 54.94377 | 9993 ft | 305 kts | 117° |
| 2026-04-23 18:12 | 25.57331 | 54.96517 | 9990 ft | 304 kts | 117° |
| 2026-04-23 18:13 | 25.56480 | 54.98657 | 9993 ft | 303 kts | 117° |
| 2026-04-23 18:13 | 25.55636 | 55.00795 | 9994 ft | 303 kts | 116° |
| 2026-04-23 18:13 | 25.54792 | 55.02935 | 9999 ft | 303 kts | 117° |
| 2026-04-23 18:13 | 25.53855 | 55.05023 | 9926 ft | 305 kts | 122° |
| 2026-04-23 18:14 | 25.52794 | 55.07061 | 9674 ft | 305 kts | 123° |
| 2026-04-23 18:14 | 25.51735 | 55.09040 | 9420 ft | 301 kts | 123° |
| 2026-04-23 18:14 | 25.50681 | 55.11019 | 9154 ft | 297 kts | 123° |
| 2026-04-23 18:14 | 25.49655 | 55.12970 | 8910 ft | 293 kts | 122° |
| 2026-04-23 18:15 | 25.48636 | 55.14922 | 8657 ft | 290 kts | 122° |
| 2026-04-23 18:15 | 25.47651 | 55.16815 | 8410 ft | 286 kts | 122° |
| 2026-04-23 18:15 | 25.46663 | 55.18716 | 8170 ft | 284 kts | 122° |
| 2026-04-23 18:15 | 25.45613 | 55.20555 | 8026 ft | 282 kts | 130° |
| 2026-04-23 18:16 | 25.44303 | 55.22224 | 8003 ft | 284 kts | 135° |
| 2026-04-23 18:16 | 25.42956 | 55.23810 | 7987 ft | 282 kts | 135° |
| 2026-04-23 18:16 | 25.41633 | 55.25369 | 7983 ft | 282 kts | 135° |
| 2026-04-23 18:17 | 25.38982 | 55.28573 | 7992 ft | 283 kts | 134° |
| 2026-04-23 18:17 | 25.37643 | 55.30212 | 7825 ft | 285 kts | 134° |
| 2026-04-23 18:17 | 25.36338 | 55.31811 | 7587 ft | 282 kts | 134° |
| 2026-04-23 18:17 | 25.34870 | 55.33203 | 7329 ft | 277 kts | 152° |
| 2026-04-23 18:18 | 25.33188 | 55.34195 | 7106 ft | 272 kts | 154° |
| 2026-04-23 18:18 | 25.31485 | 55.35161 | 6880 ft | 270 kts | 154° |
| 2026-04-23 18:18 | 25.29847 | 55.36095 | 6646 ft | 268 kts | 154° |
| 2026-04-23 18:18 | 25.28200 | 55.37042 | 6407 ft | 266 kts | 154° |
| 2026-04-23 18:19 | 25.26563 | 55.37990 | 6191 ft | 265 kts | 154° |
| 2026-04-23 18:19 | 25.24937 | 55.38936 | 5967 ft | 262 kts | 154° |
| 2026-04-23 18:19 | 25.23324 | 55.39878 | 5600 ft | 264 kts | 153° |
| 2026-04-23 18:19 | 25.21690 | 55.40833 | 5107 ft | 266 kts | 153° |
| 2026-04-23 18:20 | 25.20056 | 55.41788 | 4673 ft | 265 kts | 152° |
| 2026-04-23 18:20 | 25.18435 | 55.42736 | 4271 ft | 263 kts | 151° |
| 2026-04-23 18:20 | 25.16826 | 55.43675 | 3899 ft | 260 kts | 150° |
| 2026-04-23 18:20 | 25.15263 | 55.44591 | 3620 ft | 252 kts | 150° |
| 2026-04-23 18:21 | 25.13725 | 55.45495 | 3287 ft | 249 kts | 150° |
| 2026-04-23 18:21 | 25.12202 | 55.46382 | 2943 ft | 245 kts | 150° |
| 2026-04-23 18:21 | 25.10913 | 55.47479 | 2832 ft | 227 kts | 124° |
| 2026-04-23 18:21 | 25.10082 | 55.48919 | 2603 ft | 220 kts | 118° |
| 2026-04-23 18:22 | 25.09294 | 55.50349 | 2265 ft | 215 kts | 118° |
| 2026-04-23 18:22 | 25.08548 | 55.51714 | 2119 ft | 203 kts | 112° |
| 2026-04-23 18:22 | 25.08336 | 55.53185 | 2044 ft | 192 kts | 75° |
| 2026-04-23 18:22 | 25.08973 | 55.54412 | 1994 ft | 181 kts | 39° |
| 2026-04-23 18:23 | 25.09652 | 55.54898 | 2000 ft | 173 kts | 21° |
| 2026-04-23 18:23 | 25.12196 | 55.54081 | 2011 ft | 171 kts | 332° |
| 2026-04-23 18:24 | 25.14228 | 55.52722 | 2000 ft | 169 kts | 332° |
| 2026-04-23 18:24 | 25.15239 | 55.52039 | 1996 ft | 172 kts | 332° |
| 2026-04-23 18:24 | 25.16259 | 55.51347 | 2007 ft | 172 kts | 332° |
| 2026-04-23 18:25 | 25.17941 | 55.49488 | 2009 ft | 175 kts | 311° |
| 2026-04-23 18:25 | 25.18658 | 55.48394 | 1811 ft | 173 kts | 308° |
| 2026-04-23 18:25 | 25.19285 | 55.47303 | 1614 ft | 163 kts | 307° |
| 2026-04-23 18:25 | 25.19850 | 55.46281 | 1457 ft | 157 kts | 306° |
| 2026-04-23 18:26 | 25.20416 | 55.45252 | 1256 ft | 155 kts | 305° |
| 2026-04-23 18:26 | 25.20978 | 55.44230 | 1047 ft | 155 kts | 305° |
| 2026-04-23 18:26 | 25.21547 | 55.43203 | 853 ft | 156 kts | 304° |
| 2026-04-23 18:26 | 25.22098 | 55.42198 | 649 ft | 148 kts | 303° |
| 2026-04-23 18:27 | 25.22635 | 55.41233 | 456 ft | 149 kts | 301° |
| 2026-04-23 18:27 | 25.23164 | 55.40257 | 239 ft | 148 kts | 302° |
| 2026-04-23 18:27 | 25.23707 | 55.39274 | 42 ft | 149 kts | 302° |
| 2026-04-23 18:27 | 25.24191 | 55.38406 | 28 ft | 112 kts | 301° |
| 2026-04-23 18:28 | 25.24522 | 55.37811 | 28 ft | 70 kts | 302° |
| 2026-04-23 18:28 | 25.24717 | 55.37455 | 27 ft | 48 kts | 300° |
| 2026-04-23 18:28 | 25.24787 | 55.37151 | 26 ft | 36 kts | 271° |
| 2026-04-23 18:28 | 25.24817 | 55.36921 | 22 ft | 25 kts | 299° |
| 2026-04-23 18:29 | 25.24870 | 55.36750 | 22 ft | 23 kts | 282° |
| 2026-04-23 18:29 | 25.24933 | 55.36592 | 21 ft | 22 kts | 301° |
| 2026-04-23 18:29 | 25.25015 | 55.36448 | 23 ft | 22 kts | 302° |
| 2026-04-23 18:29 | 25.25093 | 55.36309 | 21 ft | 21 kts | 301° |
| 2026-04-23 18:30 | 25.25170 | 55.36171 | 21 ft | 22 kts | 302° |
| 2026-04-23 18:30 | 25.25260 | 55.36012 | 22 ft | 27 kts | 302° |
| 2026-04-23 18:30 | 25.25361 | 55.35834 | 22 ft | 27 kts | 302° |
| 2026-04-23 18:30 | 25.25456 | 55.35663 | 23 ft | 25 kts | 302° |
| 2026-04-23 18:31 | 25.25546 | 55.35503 | 20 ft | 24 kts | 302° |
| 2026-04-23 18:31 | 25.25630 | 55.35353 | 20 ft | 23 kts | 302° |
| 2026-04-23 18:31 | 25.25712 | 55.35208 | 20 ft | 22 kts | 302° |
| 2026-04-23 18:31 | 25.25789 | 55.35065 | 20 ft | 21 kts | 299° |
| 2026-04-23 18:32 | 25.25866 | 55.34928 | 20 ft | 21 kts | 301° |
| 2026-04-23 18:32 | 25.25936 | 55.34801 | 22 ft | 17 kts | 302° |
| 2026-04-23 18:32 | 25.25997 | 55.34694 | 21 ft | 16 kts | 301° |
| 2026-04-23 18:32 | 25.26054 | 55.34619 | 20 ft | 12 kts | 337° |
| 2026-04-23 18:33 | 25.26113 | 55.34649 | 22 ft | 10 kts | 49° |
| 2026-04-23 18:33 | 25.26158 | 55.34704 | 21 ft | 10 kts | 49° |
| 2026-04-23 18:33 | 25.26220 | 55.34766 | 21 ft | 13 kts | 32° |
| 2026-04-23 18:33 | 25.26298 | 55.34750 | 21 ft | 13 kts | 307° |
| 2026-04-23 18:34 | 25.26345 | 55.34668 | 21 ft | 13 kts | 302° |
| 2026-04-23 18:34 | 25.26392 | 55.34584 | 21 ft | 14 kts | 301° |
| 2026-04-23 18:34 | 25.26456 | 55.34522 | 20 ft | 13 kts | 348° |
| 2026-04-23 18:34 | 25.26517 | 55.34460 | 20 ft | 12 kts | 302° |
| 2026-04-23 18:35 | 25.26562 | 55.34382 | 20 ft | 12 kts | 302° |
| 2026-04-23 18:35 | 25.26605 | 55.34305 | 20 ft | 12 kts | 301° |
| 2026-04-23 18:35 | 25.26643 | 55.34237 | 21 ft | 7 kts | 302° |
| 2026-04-23 18:35 | 25.26668 | 55.34192 | 22 ft | 6 kts | 302° |
| 2026-04-23 18:36 | 25.26683 | 55.34166 | 22 ft | 4 kts | 310° |
| 2026-04-23 18:36 | 25.26707 | 55.34168 | 20 ft | 4 kts | 23° |
| 2026-04-23 18:36 | 25.26729 | 55.34181 | 20 ft | 4 kts | 31° |
| 2026-04-23 18:36 | 25.26747 | 55.34193 | 20 ft | 2 kts | 31° |
| 2026-04-23 18:37 | 25.26759 | 55.34201 | 20 ft | 2 kts | 31° |
| 2026-04-23 18:37 | 25.26763 | 55.34203 | 20 ft | 0 kts | 31° |